Alta Vista, Iowa
Current Conditions -  °F | °C
As of 2:35 PM on Thursday 27 Nov 2014 (Local Time) from KCCY Reporting Station
Clear Clear  
Wind Chill: -5°   Ceiling: Unl
Heat Index:   Visibility: 10mi
Dew Point: -4°   Wind: 7mph
Humidity: 61%   Direction: 330°NNW
Pressure: 30.44"   Gusts: NA
Location:  43.2°N, 92.42°W
Report Text: KCCY 272035Z AUTO 33006KT 10SM CLR M14/M20 A3044 RMK AO2
Loading
Personal Weather Stations






























Interactive Weather Map New forecast layout! Learn more

10-Day Weather Forecast

Advertisements
Track Severe Weather on mobile